Time;durP1;ratioP1;P1;durP2;ratioP2;P2;SDS_P1;SDS_P2;PMS_P1;PMS_P2;Temp;Humidity;BMP_temperature;BMP_pressure;BME280_temperature;BME280_humidity;BME280_pressure;Samples;Min_cycle;Max_cycle;Signal;HPM_P1;HPM_P2
2023/09/17 00:01:53;;;;;;;8.43;4.93;;;22.70;91.70;;;;;;5069037;28;20132;-56
2023/09/17 00:04:18;;;;;;;6.45;4.22;;;22.70;91.70;;;;;;5070562;28;20062;-57
2023/09/17 00:06:44;;;;;;;6.68;4.60;;;22.70;91.80;;;;;;5070444;28;20036;-56
2023/09/17 00:09:10;;;;;;;7.13;4.78;;;22.70;91.80;;;;;;5070438;28;20067;-56
2023/09/17 00:11:35;;;;;;;7.22;4.57;;;22.70;91.80;;;;;;5088114;28;20043;-56
2023/09/17 00:14:01;;;;;;;6.50;4.60;;;22.70;91.80;;;;;;5070232;28;20491;-56
2023/09/17 00:16:31;;;;;;;5.13;4.57;;;22.60;91.90;;;;;;5053436;28;20485;-56
2023/09/17 00:18:57;;;;;;;5.45;4.43;;;22.60;92.20;;;;;;5070829;28;20032;-57
2023/09/17 00:21:22;;;;;;;8.70;4.50;;;22.60;91.90;;;;;;5070053;28;20561;-56
2023/09/17 00:23:48;;;;;;;6.35;4.32;;;22.60;91.90;;;;;;5070149;28;20131;-56
2023/09/17 00:26:14;;;;;;;8.05;4.72;;;22.50;92.00;;;;;;5069863;28;20035;-57
2023/09/17 00:28:39;;;;;;;8.88;4.57;;;22.50;92.00;;;;;;5070108;28;20397;-56
2023/09/17 00:31:05;;;;;;;5.75;4.32;;;22.50;92.10;;;;;;5087842;28;20037;-56
2023/09/17 00:33:30;;;;;;;5.03;3.90;;;22.50;92.20;;;;;;5087640;28;20036;-57
2023/09/17 00:35:56;;;;;;;9.35;4.60;;;22.50;92.20;;;;;;5069760;28;20039;-56
2023/09/17 00:38:21;;;;;;;4.82;4.40;;;22.50;92.30;;;;;;5087648;28;20562;-57
2023/09/17 00:40:47;;;;;;;6.25;4.68;;;22.50;92.30;;;;;;5069575;28;20033;-56
2023/09/17 00:43:13;;;;;;;4.65;4.15;;;22.50;92.30;;;;;;5069312;28;20064;-57
2023/09/17 00:45:40;;;;;;;5.03;4.20;;;22.50;92.30;;;;;;5069819;28;20028;-57
2023/09/17 00:48:06;;;;;;;5.35;4.45;;;22.40;92.40;;;;;;5069470;28;20045;-56
2023/09/17 00:50:32;;;;;;;7.07;4.40;;;22.40;92.40;;;;;;5069646;28;20044;-56
2023/09/17 00:52:58;;;;;;;4.55;4.15;;;22.40;92.70;;;;;;5069250;28;20056;-57
2023/09/17 00:55:25;;;;;;;7.30;4.25;;;22.40;92.50;;;;;;5069192;28;20064;-56
2023/09/17 00:57:51;;;;;;;6.07;3.92;;;22.30;92.50;;;;;;5069073;28;20033;-56
2023/09/17 01:00:20;;;;;;;10.93;4.53;;;22.40;92.60;;;;;;5069217;28;20614;-56
2023/09/17 01:02:47;;;;;;;5.32;4.50;;;22.30;92.60;;;;;;5069715;28;20031;-57
2023/09/17 01:05:13;;;;;;;4.68;4.15;;;22.30;92.60;;;;;;5069441;28;20039;-56
2023/09/17 01:07:38;;;;;;;7.78;4.28;;;22.30;92.60;;;;;;5069126;28;20392;-56
2023/09/17 01:10:05;;;;;;;4.63;4.07;;;22.30;92.70;;;;;;5069007;28;20041;-57
2023/09/17 01:12:31;;;;;;;5.60;4.18;;;22.30;92.80;;;;;;5068407;28;20549;-56
2023/09/17 01:14:56;;;;;;;7.75;4.82;;;22.30;92.70;;;;;;5069234;28;20052;-56
2023/09/17 01:17:27;;;;;;;5.55;4.40;;;22.30;92.80;;;;;;5085219;28;20028;-57
2023/09/17 01:19:54;;;;;;;5.78;4.80;;;22.30;92.80;;;;;;5068214;28;20040;-57
2023/09/17 01:22:26;;;;;;;5.53;4.43;;;22.30;92.80;;;;;;5052131;28;20406;-56
2023/09/17 01:25:18;;;;;;;6.03;4.78;;;22.30;92.90;;;;;;5068889;28;20033;-56
2023/09/17 01:27:44;;;;;;;5.82;3.97;;;22.20;92.90;;;;;;5056214;28;20195;-56
2023/09/17 01:30:16;;;;;;;8.77;4.55;;;22.20;92.90;;;;;;5048765;28;20044;-57
2023/09/17 01:32:42;;;;;;;9.30;4.63;;;22.20;93.00;;;;;;5032935;28;20037;-57
2023/09/17 01:35:11;;;;;;;6.63;4.50;;;22.20;93.00;;;;;;5074771;28;20113;-56
2023/09/17 01:37:39;;;;;;;6.82;4.13;;;22.20;93.00;;;;;;5069066;28;20040;-56
2023/09/17 01:40:13;;;;;;;5.90;4.45;;;22.20;93.00;;;;;;5069126;28;20044;-56
2023/09/17 01:42:39;;;;;;;7.38;4.18;;;22.20;93.00;;;;;;5067815;28;20092;-56
2023/09/17 01:45:06;;;;;;;4.60;4.20;;;22.10;93.10;;;;;;5068624;28;20063;-56
2023/09/17 01:47:32;;;;;;;4.93;4.43;;;22.10;93.10;;;;;;5051964;28;20024;-56
2023/09/17 01:50:00;;;;;;;5.15;4.20;;;22.10;93.10;;;;;;5050335;28;20048;-56
2023/09/17 01:52:26;;;;;;;9.18;4.45;;;22.10;93.10;;;;;;5035875;28;20036;-56
2023/09/17 01:54:52;;;;;;;6.13;4.20;;;22.10;93.10;;;;;;5051994;28;20067;-57
2023/09/17 01:57:18;;;;;;;6.07;4.60;;;22.10;93.10;;;;;;5067054;28;20047;-57
2023/09/17 01:59:44;;;;;;;6.63;4.38;;;22.10;93.10;;;;;;5035262;28;20111;-56
2023/09/17 02:02:10;;;;;;;8.00;4.60;;;22.10;93.10;;;;;;5068234;28;20067;-56
2023/09/17 02:04:35;;;;;;;8.95;4.20;;;22.10;93.20;;;;;;5066199;28;20036;-56
2023/09/17 02:07:01;;;;;;;6.10;4.57;;;22.10;93.20;;;;;;5086164;28;20039;-56
2023/09/17 02:09:26;;;;;;;6.38;4.28;;;22.10;93.20;;;;;;5068416;28;20388;-56
2023/09/17 02:11:52;;;;;;;4.97;4.20;;;22.10;93.30;;;;;;5084970;28;20112;-56
2023/09/17 02:14:18;;;;;;;7.43;4.40;;;22.00;93.30;;;;;;5068360;28;20036;-56
2023/09/17 02:16:43;;;;;;;7.15;4.22;;;22.10;93.30;;;;;;5068143;28;20040;-57
2023/09/17 02:19:09;;;;;;;5.28;4.20;;;22.00;93.30;;;;;;5084615;28;20067;-56
2023/09/17 02:21:35;;;;;;;5.13;4.57;;;22.00;93.40;;;;;;5068210;28;20088;-56
2023/09/17 02:24:01;;;;;;;4.72;4.13;;;22.00;93.40;;;;;;5068453;28;20095;-56
2023/09/17 02:26:27;;;;;;;11.77;4.63;;;22.00;93.40;;;;;;5054011;28;20029;-56
2023/09/17 02:28:52;;;;;;;5.63;4.15;;;22.00;93.40;;;;;;5072201;28;20041;-57
2023/09/17 02:31:18;;;;;;;4.25;3.85;;;22.00;93.40;;;;;;5071905;28;20041;-57
2023/09/17 02:33:43;;;;;;;4.32;3.90;;;22.00;93.40;;;;;;5088957;28;20052;-56
2023/09/17 02:36:09;;;;;;;6.65;4.03;;;22.00;93.40;;;;;;5089999;28;20473;-56
2023/09/17 02:38:34;;;;;;;5.63;4.10;;;22.00;93.50;;;;;;5070899;28;20499;-56
2023/09/17 02:41:00;;;;;;;6.40;3.97;;;22.00;93.80;;;;;;5071464;28;20491;-56
2023/09/17 02:43:29;;;;;;;5.35;4.38;;;21.90;93.50;;;;;;5071856;28;20104;-56
2023/09/17 02:45:55;;;;;;;4.78;4.03;;;22.00;93.50;;;;;;5054188;28;20483;-55
2023/09/17 02:48:21;;;;;;;4.90;4.38;;;22.00;93.50;;;;;;5069323;28;20501;-55
2023/09/17 02:50:47;;;;;;;5.45;4.50;;;21.90;93.60;;;;;;5051731;28;20037;-55
2023/09/17 02:53:12;;;;;;;5.35;3.92;;;21.90;93.60;;;;;;5051622;28;20044;-54
2023/09/17 02:55:38;;;;;;;8.38;4.25;;;21.90;93.70;;;;;;5089430;28;20040;-55
2023/09/17 02:58:04;;;;;;;5.50;4.30;;;21.90;93.70;;;;;;5071590;28;20040;-56
2023/09/17 03:00:33;;;;;;;6.43;4.10;;;21.90;93.70;;;;;;5070458;28;20054;-56
2023/09/17 03:02:58;;;;;;;4.43;4.03;;;21.90;93.80;;;;;;5071216;28;20042;-56
2023/09/17 03:05:24;;;;;;;5.85;4.20;;;21.90;93.80;;;;;;5071635;28;20049;-55
2023/09/17 03:07:49;;;;;;;6.35;4.10;;;21.90;93.80;;;;;;5069912;28;20037;-56
2023/09/17 03:10:18;;;;;;;5.68;4.22;;;21.90;93.80;;;;;;5071507;28;20039;-55
2023/09/17 03:12:46;;;;;;;4.32;3.85;;;21.80;93.80;;;;;;5071756;28;20067;-55
2023/09/17 03:15:11;;;;;;;4.22;3.83;;;21.90;93.90;;;;;;5070539;28;20470;-55
2023/09/17 03:17:37;;;;;;;4.85;4.22;;;21.80;93.90;;;;;;5089029;28;20047;-54
2023/09/17 03:20:13;;;;;;;4.43;3.67;;;21.80;93.90;;;;;;5071620;28;20032;-56
2023/09/17 03:22:39;;;;;;;4.70;4.25;;;21.80;94.00;;;;;;5071480;28;20059;-55
2023/09/17 03:25:06;;;;;;;4.63;4.10;;;21.50;94.00;;;;;;5071488;28;20036;-55
2023/09/17 03:27:33;;;;;;;5.22;4.35;;;21.80;94.00;;;;;;5071123;28;20029;-56
2023/09/17 03:29:59;;;;;;;7.72;4.05;;;21.80;94.10;;;;;;5087766;28;20033;-55
2023/09/17 03:32:25;;;;;;;4.55;4.15;;;21.80;94.10;;;;;;5054083;28;20048;-55
2023/09/17 03:34:50;;;;;;;4.88;4.22;;;21.80;94.10;;;;;;5054097;28;20139;-55
2023/09/17 03:37:16;;;;;;;4.75;4.10;;;21.70;94.10;;;;;;5087795;28;20115;-55
2023/09/17 03:39:48;;;;;;;4.90;4.40;;;21.70;94.10;;;;;;5088643;28;20066;-56
2023/09/17 03:42:13;;;;;;;5.10;4.22;;;21.70;94.10;;;;;;5067890;28;20043;-56
2023/09/17 03:44:40;;;;;;;4.47;3.80;;;21.70;94.10;;;;;;5069470;28;20029;-55
2023/09/17 03:47:06;;;;;;;4.05;3.53;;;21.70;94.10;;;;;;5088542;28;20040;-55
2023/09/17 03:49:31;;;;;;;5.20;3.85;;;21.70;94.10;;;;;;5088319;28;20037;-55
2023/09/17 03:51:57;;;;;;;4.68;3.80;;;21.70;94.10;;;;;;5069332;28;20493;-55
2023/09/17 03:54:22;;;;;;;4.38;3.97;;;21.70;94.10;;;;;;5070440;28;20092;-55
2023/09/17 03:56:48;;;;;;;5.97;4.10;;;21.70;94.10;;;;;;5070567;28;20072;-56
2023/09/17 03:59:13;;;;;;;6.28;4.05;;;21.70;94.10;;;;;;5053008;28;20041;-55
2023/09/17 04:01:39;;;;;;;4.18;3.80;;;21.70;94.10;;;;;;5070338;28;20036;-55
2023/09/17 04:04:05;;;;;;;8.98;3.97;;;21.70;94.20;;;;;;5053874;28;20024;-55
2023/09/17 04:06:31;;;;;;;6.80;3.90;;;21.70;94.10;;;;;;5069258;28;20068;-55
2023/09/17 04:08:56;;;;;;;4.70;3.70;;;21.70;94.10;;;;;;5053657;28;20043;-55
2023/09/17 04:11:22;;;;;;;3.92;3.58;;;21.70;94.10;;;;;;5069991;28;20033;-55
2023/09/17 04:13:47;;;;;;;6.63;3.70;;;21.70;94.10;;;;;;5087187;28;20044;-55
2023/09/17 04:16:13;;;;;;;3.92;3.63;;;21.70;94.10;;;;;;5070577;28;20469;-55
2023/09/17 04:18:38;;;;;;;3.97;3.65;;;21.70;94.10;;;;;;5053076;28;20480;-55
2023/09/17 04:21:04;;;;;;;4.53;4.13;;;21.70;94.10;;;;;;5051953;28;20040;-55
2023/09/17 04:23:29;;;;;;;4.05;3.45;;;21.70;94.10;;;;;;5087829;28;20032;-55
2023/09/17 04:25:55;;;;;;;6.30;3.90;;;21.70;94.20;;;;;;5087849;28;20069;-55
2023/09/17 04:28:20;;;;;;;4.35;3.85;;;21.70;94.20;;;;;;5052532;28;20033;-55
2023/09/17 04:30:46;;;;;;;7.57;4.10;;;21.70;94.20;;;;;;5087824;28;20041;-55
2023/09/17 04:33:12;;;;;;;4.35;3.95;;;21.70;94.20;;;;;;5053098;28;20043;-55
2023/09/17 04:35:37;;;;;;;4.47;4.07;;;21.70;94.20;;;;;;5086804;28;20040;-56
2023/09/17 04:38:04;;;;;;;5.22;4.15;;;21.70;94.20;;;;;;5069567;28;20059;-55
2023/09/17 04:40:29;;;;;;;5.18;4.00;;;21.70;94.10;;;;;;5087451;28;20041;-55
2023/09/17 04:42:55;;;;;;;4.43;3.65;;;21.60;94.00;;;;;;5068479;28;20039;-55
2023/09/17 04:45:42;;;;;;;6.70;3.67;;;21.60;94.00;;;;;;5036378;28;20123;-55
2023/09/17 04:48:09;;;;;;;4.22;3.83;;;21.60;94.10;;;;;;5086624;28;20041;-55
2023/09/17 04:50:34;;;;;;;4.63;3.90;;;21.70;94.20;;;;;;5086031;28;20059;-55
2023/09/17 04:53:00;;;;;;;3.90;3.58;;;21.60;94.30;;;;;;5069465;28;20040;-55
2023/09/17 04:55:26;;;;;;;3.65;3.35;;;21.60;94.30;;;;;;5087344;28;20051;-55
2023/09/17 04:57:52;;;;;;;6.55;4.07;;;21.60;94.40;;;;;;5086329;28;20115;-55
2023/09/17 05:00:20;;;;;;;5.50;3.90;;;21.60;94.40;;;;;;5069396;28;20028;-55
2023/09/17 05:02:46;;;;;;;5.85;3.65;;;21.60;94.40;;;;;;5087252;28;20041;-55
2023/09/17 05:05:12;;;;;;;4.32;3.75;;;21.60;94.40;;;;;;5068130;28;20040;-56
2023/09/17 05:07:38;;;;;;;6.60;3.47;;;21.60;94.50;;;;;;5052907;28;20039;-55
2023/09/17 05:10:05;;;;;;;4.65;3.70;;;21.60;94.50;;;;;;5068274;28;20036;-55
2023/09/17 05:12:30;;;;;;;5.30;3.58;;;21.60;94.50;;;;;;5086564;28;20488;-55
2023/09/17 05:14:56;;;;;;;4.85;3.95;;;21.60;94.60;;;;;;5069103;28;20046;-55
2023/09/17 05:17:21;;;;;;;4.82;3.78;;;21.60;94.50;;;;;;5085988;28;20044;-56
2023/09/17 05:19:47;;;;;;;5.05;3.90;;;21.50;94.50;;;;;;5086584;28;20119;-55
2023/09/17 05:22:12;;;;;;;4.53;3.90;;;21.50;94.50;;;;;;5068763;28;20032;-55
2023/09/17 05:24:38;;;;;;;4.20;3.80;;;21.50;94.50;;;;;;5051265;28;20036;-55
2023/09/17 05:27:04;;;;;;;4.05;3.75;;;21.50;94.60;;;;;;5068781;28;20047;-55
2023/09/17 05:29:29;;;;;;;5.13;3.55;;;21.50;94.60;;;;;;5086679;28;20032;-55
2023/09/17 05:31:55;;;;;;;6.70;4.07;;;21.50;94.50;;;;;;5085653;28;20040;-55
2023/09/17 05:34:20;;;;;;;4.45;3.97;;;21.50;94.50;;;;;;5084724;28;20101;-55
2023/09/17 05:36:46;;;;;;;6.32;3.90;;;21.50;94.50;;;;;;5086511;28;20028;-55
2023/09/17 05:39:11;;;;;;;4.95;4.05;;;21.50;94.50;;;;;;5050937;28;20131;-56
2023/09/17 05:41:39;;;;;;;4.85;3.88;;;21.50;94.50;;;;;;5086323;28;20055;-55
2023/09/17 05:44:05;;;;;;;5.60;4.00;;;21.50;94.60;;;;;;5068672;28;20025;-56
2023/09/17 05:46:33;;;;;;;4.05;3.63;;;21.50;94.60;;;;;;5085496;28;20064;-55
2023/09/17 05:48:59;;;;;;;7.30;3.55;;;21.50;94.60;;;;;;5066195;28;20061;-55
2023/09/17 05:51:24;;;;;;;7.38;3.67;;;21.50;94.50;;;;;;5066190;28;20037;-55
2023/09/17 05:53:50;;;;;;;4.38;3.55;;;21.50;94.60;;;;;;5050637;28;20048;-55
2023/09/17 05:56:15;;;;;;;6.68;3.80;;;21.50;94.60;;;;;;5086384;28;20477;-55
2023/09/17 05:58:41;;;;;;;4.60;3.90;;;21.50;94.60;;;;;;5086228;28;20103;-56
2023/09/17 06:01:06;;;;;;;4.78;3.53;;;21.50;94.60;;;;;;5085134;28;20421;-55
2023/09/17 06:03:32;;;;;;;8.10;3.72;;;21.50;94.60;;;;;;5086127;28;20036;-56
2023/09/17 06:05:58;;;;;;;5.82;3.65;;;21.50;94.60;;;;;;5068262;28;20115;-55
2023/09/17 06:08:28;;;;;;;5.10;3.67;;;21.50;94.60;;;;;;5085303;28;20040;-54
2023/09/17 06:10:54;;;;;;;5.57;3.88;;;21.50;94.70;;;;;;5068587;28;20476;-55
2023/09/17 06:13:20;;;;;;;4.25;3.85;;;21.50;94.70;;;;;;5067984;28;20123;-55
2023/09/17 06:15:45;;;;;;;5.43;3.95;;;21.50;94.70;;;;;;5067175;28;20043;-56
2023/09/17 06:18:11;;;;;;;5.03;3.70;;;21.50;94.70;;;;;;5051577;28;20079;-55
2023/09/17 06:20:37;;;;;;;4.03;3.55;;;21.50;94.60;;;;;;5086024;28;20036;-52
2023/09/17 06:23:03;;;;;;;4.68;3.75;;;21.50;94.50;;;;;;5050608;28;20040;-51
2023/09/17 06:25:28;;;;;;;6.25;4.00;;;21.50;94.50;;;;;;5068100;28;20041;-51
2023/09/17 06:27:54;;;;;;;4.35;3.90;;;21.50;94.40;;;;;;5085872;28;20037;-52
2023/09/17 06:30:20;;;;;;;4.90;3.97;;;21.50;94.50;;;;;;5067108;28;20047;-52
2023/09/17 06:32:45;;;;;;;7.03;4.00;;;21.50;94.50;;;;;;5086070;28;20040;-52
2023/09/17 06:35:11;;;;;;;3.88;3.58;;;21.50;94.60;;;;;;5068207;28;20037;-52
2023/09/17 06:37:36;;;;;;;6.65;4.00;;;21.50;94.70;;;;;;5066846;28;20032;-51
2023/09/17 06:40:02;;;;;;;4.32;3.83;;;21.50;94.60;;;;;;5085656;28;20041;-51
2023/09/17 06:42:29;;;;;;;5.97;4.00;;;21.50;94.70;;;;;;5085811;28;20044;-51
2023/09/17 06:44:55;;;;;;;7.10;3.67;;;21.50;94.70;;;;;;5067111;28;20048;-51
2023/09/17 06:47:20;;;;;;;4.88;4.13;;;21.50;94.70;;;;;;5066967;28;20032;-51
2023/09/17 06:49:46;;;;;;;3.97;3.55;;;21.50;94.70;;;;;;5048799;28;20040;-51
2023/09/17 06:52:11;;;;;;;4.13;3.65;;;21.50;94.70;;;;;;5066135;28;20039;-51
2023/09/17 06:54:37;;;;;;;4.03;3.67;;;21.50;94.80;;;;;;5067885;28;20035;-51
2023/09/17 06:57:02;;;;;;;3.92;3.60;;;21.50;94.80;;;;;;5085782;28;20074;-51
2023/09/17 06:59:28;;;;;;;5.75;3.70;;;21.50;94.70;;;;;;5084273;28;20389;-51
2023/09/17 07:01:54;;;;;;;3.92;3.53;;;21.50;94.80;;;;;;5050785;28;20037;-51
2023/09/17 07:04:19;;;;;;;4.03;3.70;;;21.50;94.80;;;;;;5085606;28;20033;-51
2023/09/17 07:06:45;;;;;;;4.63;3.70;;;21.50;94.80;;;;;;5084253;28;20446;-52
2023/09/17 07:09:10;;;;;;;7.88;3.92;;;21.50;94.70;;;;;;5057761;28;20037;-51
2023/09/17 07:11:36;;;;;;;4.68;3.53;;;21.50;94.70;;;;;;5050696;28;20040;-52
2023/09/17 07:14:09;;;;;;;3.42;3.13;;;21.50;94.80;;;;;;5059412;28;20045;-52
2023/09/17 07:16:35;;;;;;;4.10;3.70;;;21.50;94.80;;;;;;5033574;28;20060;-51
2023/09/17 07:19:01;;;;;;;3.85;3.42;;;21.50;94.80;;;;;;5049187;28;20040;-51
2023/09/17 07:21:27;;;;;;;5.13;3.95;;;21.50;94.80;;;;;;5050595;28;20041;-51
2023/09/17 07:23:52;;;;;;;5.97;3.97;;;21.50;94.80;;;;;;5033102;28;20030;-51
2023/09/17 07:26:20;;;;;;;4.35;3.70;;;21.50;94.70;;;;;;5068750;28;20071;-52
2023/09/17 07:28:46;;;;;;;5.10;3.70;;;21.50;94.70;;;;;;5068852;28;20033;-54
2023/09/17 07:31:12;;;;;;;5.65;3.97;;;21.50;94.60;;;;;;5050948;28;20032;-52
2023/09/17 07:33:39;;;;;;;4.20;3.78;;;21.50;94.60;;;;;;5068943;28;20063;-52
2023/09/17 07:36:05;;;;;;;4.57;3.70;;;21.50;94.60;;;;;;5068780;28;20037;-52
2023/09/17 07:38:32;;;;;;;4.22;3.83;;;21.50;94.60;;;;;;5050785;28;20044;-52
2023/09/17 07:40:57;;;;;;;8.30;4.10;;;21.50;94.80;;;;;;5068356;28;20089;-52
2023/09/17 07:43:23;;;;;;;5.70;4.05;;;21.50;95.00;;;;;;5050631;28;20049;-52
2023/09/17 07:45:48;;;;;;;5.00;3.88;;;21.50;95.10;;;;;;5050375;28;20040;-52
2023/09/17 07:48:14;;;;;;;5.93;3.92;;;21.50;95.20;;;;;;5068418;28;20151;-54
2023/09/17 07:50:40;;;;;;;4.72;3.90;;;21.50;95.20;;;;;;5068503;28;20037;-52
2023/09/17 07:53:07;;;;;;;6.88;3.83;;;21.50;95.30;;;;;;5034367;28;20108;-52
2023/09/17 07:55:32;;;;;;;5.28;3.50;;;21.50;95.30;;;;;;5068494;28;20184;-52
2023/09/17 07:57:58;;;;;;;5.13;4.00;;;21.50;95.30;;;;;;5050639;28;20061;-52
2023/09/17 08:00:24;;;;;;;4.50;3.42;;;21.50;95.30;;;;;;5050513;28;20029;-52
2023/09/17 08:02:49;;;;;;;4.68;3.58;;;21.50;95.20;;;;;;5050112;28;20037;-52
2023/09/17 08:05:15;;;;;;;5.32;3.33;;;21.60;95.50;;;;;;5050252;28;20022;-52
2023/09/17 08:07:40;;;;;;;8.95;4.53;;;21.60;95.20;;;;;;5067730;28;20049;-52
2023/09/17 08:10:07;;;;;;;6.43;3.45;;;21.60;95.20;;;;;;5050037;28;20036;-52
2023/09/17 08:12:33;;;;;;;7.30;3.47;;;21.60;95.30;;;;;;5033387;28;20066;-52
2023/09/17 08:14:58;;;;;;;8.38;3.33;;;21.60;95.20;;;;;;5049710;28;20489;-52
2023/09/17 08:17:24;;;;;;;4.00;3.38;;;21.60;95.30;;;;;;5049985;28;20041;-52
2023/09/17 08:19:49;;;;;;;7.25;3.60;;;21.60;95.20;;;;;;5049659;28;20037;-52
2023/09/17 08:22:15;;;;;;;13.02;3.70;;;21.60;95.10;;;;;;5048760;28;20508;-52
2023/09/17 08:24:41;;;;;;;8.90;3.47;;;21.70;95.10;;;;;;5067780;28;20029;-52
2023/09/17 08:27:06;;;;;;;14.52;3.67;;;21.70;95.00;;;;;;5049743;28;20477;-51
2023/09/17 08:29:33;;;;;;;11.55;3.22;;;21.70;95.10;;;;;;5049826;28;20096;-52
2023/09/17 08:31:59;;;;;;;7.10;3.25;;;21.70;95.10;;;;;;5049744;28;20037;-52
2023/09/17 08:34:25;;;;;;;10.70;3.88;;;21.70;95.10;;;;;;5049480;28;20086;-51
2023/09/17 08:36:51;;;;;;;12.65;3.45;;;21.70;95.00;;;;;;5067336;28;20428;-51
2023/09/17 08:39:16;;;;;;;8.77;3.75;;;21.70;94.90;;;;;;5049316;28;20029;-52
2023/09/17 08:41:42;;;;;;;12.20;3.55;;;21.70;94.70;;;;;;5066945;28;20045;-52
2023/09/17 08:44:08;;;;;;;17.75;4.57;;;21.80;94.70;;;;;;5049490;28;20033;-52
2023/09/17 08:46:34;;;;;;;13.02;4.45;;;21.70;94.80;;;;;;5049306;28;20044;-51
2023/09/17 08:49:01;;;;;;;13.93;4.63;;;21.80;94.70;;;;;;5075031;28;20040;-51
2023/09/17 08:51:28;;;;;;;20.92;4.85;;;21.80;94.70;;;;;;5069032;28;20037;-52
2023/09/17 08:54:26;;;;;;;13.35;4.57;;;21.80;94.70;;;;;;5069180;28;20056;-52
2023/09/17 08:56:52;;;;;;;31.25;5.60;;;21.80;94.60;;;;;;5064229;28;20088;-52
2023/09/17 08:59:24;;;;;;;40.85;7.60;;;21.90;94.60;;;;;;5067130;28;20060;-52
2023/09/17 09:01:50;;;;;;;41.25;6.50;;;21.90;94.90;;;;;;5088355;28;20043;-52
2023/09/17 09:04:16;;;;;;;29.77;6.80;;;21.90;94.90;;;;;;5088932;28;20084;-52
2023/09/17 09:06:43;;;;;;;39.17;5.90;;;21.90;94.90;;;;;;5088528;28;20032;-52
2023/09/17 09:09:08;;;;;;;39.30;5.72;;;22.00;94.70;;;;;;5088622;28;20035;-52
2023/09/17 09:11:37;;;;;;;22.95;5.60;;;22.00;94.60;;;;;;5071643;28;20047;-52
2023/09/17 09:14:03;;;;;;;41.10;7.07;;;22.00;94.50;;;;;;5065306;28;20037;-52
2023/09/17 09:16:29;;;;;;;43.38;9.13;;;22.00;94.60;;;;;;5068068;28;20067;-52
2023/09/17 09:18:55;;;;;;;41.42;7.03;;;22.10;94.60;;;;;;5068314;28;20033;-52
2023/09/17 09:21:20;;;;;;;71.90;8.57;;;22.10;94.40;;;;;;5068170;28;20041;-52
2023/09/17 09:23:47;;;;;;;48.35;8.20;;;22.10;94.20;;;;;;5086007;28;20032;-52
2023/09/17 09:26:12;;;;;;;32.95;7.35;;;22.10;94.10;;;;;;5067712;28;20041;-52
2023/09/17 09:28:38;;;;;;;44.33;9.18;;;22.10;94.00;;;;;;5086337;28;20067;-52
2023/09/17 09:31:04;;;;;;;51.72;8.52;;;22.20;93.90;;;;;;5068046;28;20040;-51
2023/09/17 09:33:30;;;;;;;57.22;10.15;;;22.20;93.70;;;;;;5067252;28;20036;-51
2023/09/17 09:35:56;;;;;;;59.33;9.90;;;22.20;93.60;;;;;;5067610;28;20381;-51
2023/09/17 09:38:21;;;;;;;70.72;10.98;;;22.30;93.70;;;;;;5067446;28;20025;-52
2023/09/17 09:40:47;;;;;;;99.13;15.20;;;22.30;93.80;;;;;;5051436;28;20032;-51
2023/09/17 09:43:31;;;;;;;143.77;15.88;;;22.40;94.10;;;;;;5050957;28;20029;-51
2023/09/17 09:46:06;;;;;;;105.82;15.60;;;22.40;94.00;;;;;;5059424;28;20063;-51
2023/09/17 09:48:36;;;;;;;106.13;13.47;;;22.40;94.10;;;;;;5066074;28;20041;-51
2023/09/17 09:51:02;;;;;;;86.85;13.63;;;22.50;94.20;;;;;;5065750;28;20048;-51
2023/09/17 09:53:28;;;;;;;79.43;12.00;;;22.50;94.30;;;;;;5069689;28;20126;-51
2023/09/17 09:55:54;;;;;;;131.52;15.48;;;22.50;94.10;;;;;;5080138;28;20637;-52
2023/09/17 09:58:19;;;;;;;101.40;14.98;;;22.60;94.10;;;;;;5066888;28;20028;-51
2023/09/17 10:00:45;;;;;;;119.45;16.48;;;22.70;94.00;;;;;;5067102;28;20033;-51
2023/09/17 10:03:12;;;;;;;123.53;16.50;;;22.70;94.20;;;;;;5051507;28;20039;-51
2023/09/17 10:05:40;;;;;;;138.10;17.55;;;22.80;94.50;;;;;;5051988;28;20025;-52
2023/09/17 10:08:09;;;;;;;137.98;19.98;;;22.80;94.00;;;;;;5067047;28;20067;-52
2023/09/17 10:10:38;;;;;;;145.60;19.17;;;22.90;93.90;;;;;;5066411;28;20032;-51
2023/09/17 10:13:06;;;;;;;135.10;19.63;;;23.00;93.50;;;;;;5051178;28;20051;-52
2023/09/17 10:15:32;;;;;;;109.75;16.63;;;23.10;93.30;;;;;;5067968;28;20025;-51
2023/09/17 10:17:58;;;;;;;122.07;17.50;;;23.10;92.80;;;;;;5051405;28;20493;-51
2023/09/17 10:20:23;;;;;;;115.40;17.17;;;23.10;92.60;;;;;;5067550;28;20028;-51
2023/09/17 10:22:49;;;;;;;123.32;16.90;;;23.20;92.40;;;;;;5067545;28;20040;-51
2023/09/17 10:25:16;;;;;;;155.23;19.52;;;23.20;92.30;;;;;;5050784;28;20035;-51
2023/09/17 10:27:42;;;;;;;127.47;18.42;;;23.20;92.20;;;;;;5051038;28;20068;-52
2023/09/17 10:30:08;;;;;;;118.53;15.60;;;23.20;92.20;;;;;;5067490;28;20025;-52
2023/09/17 10:32:33;;;;;;;150.00;19.17;;;23.20;92.00;;;;;;5046985;28;20104;-51
2023/09/17 10:34:59;;;;;;;122.82;17.02;;;23.20;91.80;;;;;;5050773;28;20415;-51
2023/09/17 10:37:26;;;;;;;127.35;16.70;;;23.30;91.60;;;;;;5049967;28;20051;-51
2023/09/17 10:39:52;;;;;;;135.45;16.83;;;23.30;91.30;;;;;;5084479;28;20099;-51
2023/09/17 10:42:17;;;;;;;120.57;15.20;;;23.40;91.10;;;;;;5050362;28;20041;-51
2023/09/17 10:44:43;;;;;;;136.07;18.23;;;23.40;90.90;;;;;;5033881;28;20025;-51
2023/09/17 10:47:10;;;;;;;102.07;16.85;;;23.40;90.70;;;;;;5060525;28;20047;-52
2023/09/17 10:49:38;;;;;;;134.30;18.42;;;23.50;90.70;;;;;;5088507;28;20037;-51
2023/09/17 10:52:05;;;;;;;118.30;15.98;;;23.50;90.70;;;;;;5070641;28;20037;-51
2023/09/17 10:54:31;;;;;;;98.75;14.80;;;23.50;90.50;;;;;;5042096;28;20033;-51
2023/09/17 10:56:57;;;;;;;107.78;15.20;;;23.60;90.40;;;;;;5058424;28;20097;-51
2023/09/17 10:59:22;;;;;;;107.25;15.15;;;23.60;90.40;;;;;;5071033;28;20033;-51
2023/09/17 11:01:48;;;;;;;108.63;15.13;;;23.70;90.40;;;;;;5070936;28;20052;-52
2023/09/17 11:04:15;;;;;;;93.80;14.10;;;23.70;90.20;;;;;;5067180;28;20080;-52
2023/09/17 11:06:42;;;;;;;111.22;13.52;;;23.70;90.10;;;;;;5056309;28;20036;-51
2023/09/17 11:09:07;;;;;;;103.28;13.05;;;23.80;90.00;;;;;;5066930;28;20377;-52
2023/09/17 11:11:34;;;;;;;129.70;14.35;;;23.80;89.80;;;;;;5069069;28;20048;-51
2023/09/17 11:14:01;;;;;;;116.25;14.23;;;23.80;89.80;;;;;;5063636;28;20044;-52
2023/09/17 11:16:29;;;;;;;125.72;16.13;;;23.90;89.20;;;;;;5054280;28;20054;-52
2023/09/17 11:19:09;;;;;;;109.35;14.95;;;24.00;89.00;;;;;;5088555;28;20465;-51
2023/09/17 11:21:42;;;;;;;107.68;13.73;;;24.10;89.10;;;;;;5054198;28;20113;-51
2023/09/17 11:24:12;;;;;;;137.15;15.88;;;24.10;88.80;;;;;;5088174;28;20062;-51
2023/09/17 11:26:41;;;;;;;146.80;16.50;;;24.10;88.30;;;;;;5054785;28;20125;-51
2023/09/17 11:29:08;;;;;;;110.13;14.13;;;24.10;88.10;;;;;;5070309;28;20112;-51
2023/09/17 11:31:35;;;;;;;122.63;14.13;;;24.20;88.00;;;;;;5053661;28;20121;-51
2023/09/17 11:34:05;;;;;;;114.22;14.73;;;24.30;87.70;;;;;;5037461;28;20086;-51
2023/09/17 11:36:31;;;;;;;93.10;15.02;;;24.30;87.70;;;;;;5049099;28;20041;-52
2023/09/17 11:38:58;;;;;;;90.80;13.98;;;24.40;87.50;;;;;;5034116;28;20067;-51
2023/09/17 11:41:36;;;;;;;106.10;14.73;;;24.50;87.10;;;;;;5017477;28;20100;-51
2023/09/17 11:44:03;;;;;;;112.47;13.35;;;24.60;87.00;;;;;;5052363;28;20037;-52
2023/09/17 11:46:29;;;;;;;88.32;11.93;;;24.60;86.70;;;;;;5063756;28;20036;-51
2023/09/17 11:48:55;;;;;;;85.28;12.25;;;24.70;86.50;;;;;;5068330;28;20066;-51
2023/09/17 11:51:27;;;;;;;109.47;13.30;;;24.70;86.20;;;;;;5085202;28;20497;-51
2023/09/17 11:54:06;;;;;;;101.07;11.85;;;24.70;86.20;;;;;;5086790;28;20032;-51
2023/09/17 11:56:34;;;;;;;108.70;13.93;;;24.80;86.00;;;;;;5059025;28;20421;-51
2023/09/17 11:59:04;;;;;;;94.10;12.40;;;24.80;85.90;;;;;;5066761;28;20033;-51
2023/09/17 12:01:40;;;;;;;73.00;10.05;;;24.90;85.70;;;;;;5067271;28;20052;-51
2023/09/17 12:04:06;;;;;;;69.47;9.55;;;25.00;85.30;;;;;;5053426;28;20065;-52
2023/09/17 12:06:38;;;;;;;77.80;10.25;;;25.00;84.80;;;;;;5068939;28;20033;-51
2023/09/17 12:12:19;;;;;;;67.45;10.25;;;25.10;84.10;;;;;;5082646;28;20063;-52
2023/09/17 12:14:48;;;;;;;82.22;11.07;;;25.20;83.70;;;;;;5049033;28;20033;-52
2023/09/17 12:17:16;;;;;;;68.00;10.02;;;25.20;83.60;;;;;;5053404;28;20108;-51
2023/09/17 12:19:42;;;;;;;84.90;9.25;;;25.30;83.40;;;;;;5066113;28;20064;-52
2023/09/17 12:22:08;;;;;;;97.95;11.80;;;25.20;83.30;;;;;;5046966;28;20382;-52
2023/09/17 12:24:44;;;;;;;86.60;10.98;;;25.30;83.30;;;;;;5050348;28;20056;-51
2023/09/17 12:27:29;;;;;;;72.97;10.93;;;25.40;83.30;;;;;;5064373;28;20041;-51
2023/09/17 12:29:55;;;;;;;103.57;12.23;;;25.40;83.10;;;;;;5078478;28;20035;-52
2023/09/17 12:32:22;;;;;;;92.00;11.93;;;25.50;82.80;;;;;;5060281;28;20060;-52
2023/09/17 12:34:52;;;;;;;102.28;13.55;;;25.50;82.70;;;;;;5053077;28;20108;-51
2023/09/17 12:37:19;;;;;;;80.32;10.88;;;25.50;82.20;;;;;;5074566;28;20037;-52
2023/09/17 12:39:46;;;;;;;100.82;12.10;;;25.60;82.10;;;;;;5068092;28;20044;-52
2023/09/17 12:42:12;;;;;;;118.90;16.00;;;25.70;82.00;;;;;;5052245;28;20024;-51